Flight Track Log - Related Links

Times and Time Zones

All times are in EDT time to prevent confusion due to time zone crossing. See the AAL9657 flight status page for this flight to view local times or setup timezone preferences in your user account.

Time Position Orientation Groundspeed Altitude Reporting Facility
EDT Latitude Longitude Course Direction KTS MPH feet Rate Location/Type
Thu 10:36:44 AM 33.9053 -118.5239 212° Southwest 205 236 5,800  Level Los Center
Thu 10:37:44 AM 33.8544 -118.5625 123° Southeast 238 274 9,200 3,250 Climbing Los Center
Thu 10:38:44 AM 33.8103 -118.4811 58° Northeast 175 201 12,300 2,350 Climbing Los Center
Thu 10:39:44 AM 33.8686 -118.3703 50° Northeast 183 211 13,900 2,300 Climbing Los Center
Thu 10:40:44 AM 33.9478 -118.2572 54° Northeast 303 349 16,900 3,000 Climbing Los Center
Thu 10:41:44 AM 34.0253 -118.1289 51° Northeast 405 466 19,900 2,750 Climbing Los Center
Thu 10:42:44 AM 34.1044 -118.0103 52° Northeast 432 497 22,400 2,350 Climbing Los Center
Thu 10:43:44 AM 34.1833 -117.8864 54° Northeast 448 516 24,600 1,750 Climbing Los Center
Thu 10:44:44 AM 34.2583 -117.7625 52° Northeast 455 524 25,900 700 Climbing Los Center
Thu 10:45:44 AM 34.3392 -117.6358 54° Northeast 460 529 26,000 50 Climbing Los Center
Thu 10:46:45 AM 34.4158 -117.5086 52° Northeast 465 535 26,000  Level Los Center
Thu 10:47:44 AM 34.4964 -117.3814 53° Northeast 465 535 26,000  Level Los Center
Thu 10:48:44 AM 34.5769 -117.2514 53° Northeast 471 542 26,000 -250 Level Los Center
Thu 10:49:44 AM 34.6553 -117.1264 53° Northeast 471 542 25,500 -750 Descending Los Center
Thu 10:50:44 AM 34.7356 -116.9983 53° Northeast 471 542 24,500 -750 Descending Los Center
Thu 10:51:44 AM 34.8075 -116.8803 52° Northeast 479 551 24,000 -250 Descending Los Center
Thu 10:52:44 AM 34.8875 -116.7544 54° Northeast 474 545 24,000 -50 Level Los Center
Thu 10:53:44 AM 34.9653 -116.6256 53° Northeast 474 545 23,900  Descending Los Center
Thu 10:54:44 AM 35.0450 -116.4942 50° Northeast 474 545 24,000 50 Climbing Los Center
Thu 10:55:44 AM 35.1308 -116.3703 46° Northeast 474 545 24,000 -1,000 Level Los Center
Thu 10:56:44 AM 35.2208 -116.2561 47° Northeast 469 540 22,000 -2,600 Descending Los Center
Thu 10:57:44 AM 35.3044 -116.1467 45° Northeast 452 520 18,800 -3,050 Descending Los Center
Thu 10:58:44 AM 35.3900 -116.0422 45° Northeast 437 503 15,900 -2,600 Descending Los Center
Thu 10:59:44 AM 35.4669 -115.9478 47° Northeast 411 473 13,600 -1,438 Descending Los Center
Thu 11:00:45 AM 35.5400 -115.8508 47° Northeast 393 452 13,000 -330 Descending Los Center
Thu 11:01:33 AM 35.6022 -115.7689 45° Northeast 376 433 13,000  Level Los Center
Thu 11:02:33 AM 35.6667 -115.6892 44° Northeast 333 383 13,000  Level Los Center
Thu 11:03:34 AM 35.7331 -115.6094 17° North 327 376 13,000 -94 Level Los Center
Thu 11:04:41 AM 35.8289 -115.5731 North 324 373 12,800 -469 Descending Los Center
Thu 11:05:42 AM 35.9186 -115.5700 37° Northeast 323 372 12,000 -732 Descending Los Center
Thu 11:06:44 AM 35.9831 -115.5106 68° East 325 374 11,300 -517 Descending Los Center
Thu 11:07:38 AM 36.0139 -115.4178 82° East 322 371 11,000 -574 Descending Los Center
Thu 11:08:39 AM 36.0258 -115.3175 95° East 301 346 10,200 -1,082 Descending Los Center
Thu 11:09:40 AM 36.0189 -115.2200 94° East 267 307 8,800 -1,056 Descending Los Center
Thu 11:10:44 AM 36.0139 -115.1225 96° East 267 307 8,000 -672 Descending Los Center
Thu 11:11:54 AM 36.0069 -115.0378 93° East 217 250 7,300 -744 Descending Los Center
Thu 11:12:45 AM 36.0042 -114.9789 17° North 221 254 6,500 -1,473 Descending Los Center
Thu 11:13:44 AM 36.0519 -114.9603 295° West 132 152 4,600 -1,350 Descending Los Center
Thu 11:14:45 AM 36.0736 -115.0189 271° West 101 116 3,800 -900 Descending Los Center
Thu 11:15:44 AM 36.0742 -115.0806 270° West 130 150 2,800 -908 Descending Los Center
Thu 11:16:44 AM 36.0744 -115.1269 277° West 140 161 2,000 -350 Descending Los Center
Thu 11:17:44 AM 36.0767 -115.1500 318° Northwest 121 139 2,100 50 Climbing Los Center
Thu 11:18:44 AM 36.0789 -115.1525 94° East 56 64 2,100  Level Los Center
Thu 11:19:44 AM 36.0786 -115.1475 114° Southeast 31 36 2,100 -50 Level Los Center
Thu 11:20:44 AM 36.0767 -115.1422 114° Southeast 9 10 2,000 -100 Descending Los Center

Login

Don't have an account? Register now (free) for customized features, flight alerts, and more!